Flight Track Log - Related Links

Times and Time Zones

All times are in EDT time to prevent confusion due to time zone crossing. See the CTL309 flight status page for this flight to view local times or setup timezone preferences in your user account.

Time Position Orientation Groundspeed Altitude Reporting Facility
EDT Latitude Longitude Course Direction KTS MPH feet Rate Location/Type
Tue 09:44:38 PM 41.5125 -81.7006 216° Southwest 126 145 900  Level Cleveland Center
Tue 09:45:57 PM 41.5414 -81.7511 307° West 130 150 2,300 986 Climbing Cleveland Center
Tue 09:46:58 PM 41.5450 -81.7983 276° West 122 140 3,200 942 Climbing Cleveland Center
Tue 09:47:58 PM 41.5383 -81.8397 258° West 118 136 4,200 942 Climbing Cleveland Center
Tue 09:48:59 PM 41.5108 -81.8642 214° Southwest 119 137 5,100 738 Climbing Cleveland Center
Tue 09:50:00 PM 41.3006 -81.8801 216° Southwest  Level FlightAware Approximate
Tue 09:50:00 PM 41.4814 -81.8914 215° Southwest 134 154 5,700  Level Cleveland Center
Tue 09:50:54 PM 41.4519 -81.9156 212° Southwest 141 162 6,000 157 Climbing Cleveland Center
Tue 09:51:55 PM 41.4142 -81.9453 211° Southwest 154 177 6,000  Level Cleveland Center
Tue 09:52:55 PM 41.3781 -81.9778 214° Southwest 156 180 6,000 -50 Level Cleveland Center
Tue 09:53:56 PM 41.3403 -82.0103 213° Southwest 157 181 5,900  Descending Cleveland Center
Tue 09:54:57 PM 41.3086 -82.0428 218° Southwest 155 178 6,000 29 Climbing Cleveland Center
Tue 09:57:20 PM 41.2186 -82.1100 209° Southwest 156 180 6,000  Level Indianapolis Center
Tue 09:58:21 PM 41.1822 -82.1431 214° Southwest 157 181 6,000  Level Indianapolis Center
Tue 09:59:22 PM 41.1464 -82.1744 213° Southwest 155 178 6,000 -49 Level Indianapolis Center
Tue 10:00:23 PM 41.1100 -82.2067 214° Southwest 155 178 5,900  Descending Indianapolis Center
Tue 10:01:25 PM 41.0744 -82.2389 214° Southwest 155 178 6,000 49 Climbing Indianapolis Center
Tue 10:02:26 PM 41.0372 -82.2675 210° Southwest 154 177 6,000  Level Indianapolis Center
Tue 10:03:27 PM 40.9992 -82.2989 212° Southwest 158 182 6,000  Level Indianapolis Center
Tue 10:04:28 PM 40.9625 -82.3317 214° Southwest 158 182 6,000  Level Indianapolis Center
Tue 10:05:29 PM 40.9256 -82.3639 213° Southwest 158 182 6,000  Level Indianapolis Center
Tue 10:06:31 PM 40.8861 -82.3964 212° Southwest 162 186 6,000  Level Indianapolis Center
Tue 10:07:32 PM 40.8478 -82.4267 211° Southwest 160 184 6,000  Level Indianapolis Center
Tue 10:08:33 PM 40.8108 -82.4611 215° Southwest 160 184 6,000  Level Indianapolis Center
Tue 10:09:34 PM 40.7719 -82.4933 212° Southwest 163 188 6,000  Level Indianapolis Center
Tue 10:10:35 PM 40.7342 -82.5261 213° Southwest 161 185 6,000 -49 Level Indianapolis Center
Tue 10:11:36 PM 40.6961 -82.5589 213° Southwest 162 186 5,900  Descending Indianapolis Center
Tue 10:12:37 PM 40.6506 -82.5942 210° Southwest 161 185 6,000 49 Climbing Indianapolis Center
Tue 10:13:38 PM 40.6144 -82.6267 214° Southwest 157 181 6,000  Level Indianapolis Center
Tue 10:14:40 PM 40.5761 -82.6583 212° Southwest 159 183 6,000  Level Indianapolis Center
Tue 10:15:41 PM 40.5389 -82.6919 214° Southwest 161 185 6,000  Level Indianapolis Center
Tue 10:16:42 PM 40.5014 -82.7233 212° Southwest 158 182 6,000  Level Indianapolis Center
Tue 10:17:43 PM 40.4636 -82.7536 211° Southwest 157 181 6,000  Level Indianapolis Center
Tue 10:18:44 PM 40.4267 -82.7878 215° Southwest 159 183 6,000 -200 Level Indianapolis Center
Tue 10:19:43 PM 40.3892 -82.8258 218° Southwest 162 186 5,600 -443 Descending Indianapolis Center
Tue 10:20:46 PM 40.3461 -82.8561 208° Southwest 172 198 5,100 -484 Descending Indianapolis Center
Tue 10:21:47 PM 40.3028 -82.8908 211° Southwest 177 204 4,600 -591 Descending Indianapolis Center
Tue 10:22:58 PM 40.2500 -82.9331 211° Southwest 184 212 3,800 -780 Descending Indianapolis Center
Tue 10:23:50 PM 40.2150 -82.9625 213° Southwest 183 211 3,000 -690 Descending Indianapolis Center
Tue 10:24:51 PM 40.1708 -82.9922 207° Southwest 180 207 2,500 -590 Descending Indianapolis Center
Tue 10:25:52 PM 40.1267 -83.0158 202° Southwest 174 200 1,800 -541 Descending Indianapolis Center
Tue 10:26:53 PM 40.0878 -83.0369 203° Southwest 161 185 1,400 -295 Descending Indianapolis Center
Tue 10:27:54 PM 40.0553 -83.0597 208° Southwest 150 173 1,200 -197 Descending Indianapolis Center
Tue 10:29:00 PM 40.0667 -83.0667 201° Southwest  Level FlightAware Approximate

Login

Don't have an account? Register now (free) for customized features, flight alerts, and more!